OOCL Oakland — 3EKJ6 — position and weather

sailwx.info

Track history (hours):
 
Tides and Currents Weather Stations Pressure Air Temp Water Temp Dewpoint Dewpoint Depression Visibility Wind Speed Wind Dir Waves Ship Positions

OOCL Oakland

Last reported at 2014-Jul-24 18:26 UTC. Time now 2014-Jul-24 19:19 UTC.
Position N 25°05' E 119°54'.

Length 280 m; draft 11.6 m.

Type: Ship. MMSI: 372703235.

Date/timePositionNaut miles runAvg speedWind from/ knotsBaromVisibWave heightAir tempDewpointWater temp
2014-Jul-24 18:26N 25°05' E 119°54'3414.5
2014-Jul-24 16:07N 24°41' E 119°27'2213.7
2014-Jul-24 14:33N 24°27' E 119°10'3414.3
2014-Jul-24 12:10N 24°04' E 118°42'810.6
2014-Jul-24 11:27N 23°58' E 118°36'1314.8
2014-Jul-24 10:34N 23°49' E 118°26'1515.2
2014-Jul-24 09:33N 23°38' E 118°14'2421.7
2014-Jul-24 08:27N 23°21' E 117°56'  
2014-Jul-17 00:34N 01°13' E 103°56'5 5.1
2014-Jul-16 23:31N 01°16' E 103°51'0 0.0
2014-Jul-16 22:31N 01°16' E 103°51'0 0.0
2014-Jul-16 21:31N 01°16' E 103°51'0 0.0
2014-Jul-16 20:31N 01°16' E 103°51'0 0.0
2014-Jul-16 19:31N 01°16' E 103°51'0 0.0
2014-Jul-16 18:31N 01°16' E 103°51'0 0.0
2014-Jul-16 17:28N 01°16' E 103°51'0 0.0
2014-Jul-16 16:31N 01°16' E 103°51'0 0.0
2014-Jul-16 15:31N 01°16' E 103°51'0 0.0
2014-Jul-16 14:31N 01°16' E 103°51'0 0.0
2014-Jul-16 13:31N 01°16' E 103°51'0 0.0
2014-Jul-16 12:31N 01°16' E 103°51'0 0.0
2014-Jul-16 11:31N 01°16' E 103°51'0 0.0
2014-Jul-16 10:31N 01°16' E 103°51'0 0.0
2014-Jul-16 09:31N 01°16' E 103°51'0 0.0
2014-Jul-16 08:31N 01°16' E 103°51'0 0.0
2014-Jul-16 07:31N 01°16' E 103°51'0 0.0
2014-Jul-16 06:25N 01°16' E 103°51'0 0.0
2014-Jul-16 05:31N 01°16' E 103°51'0 0.0
2014-Jul-16 04:31N 01°16' E 103°51'0 0.0
2014-Jul-16 03:31N 01°16' E 103°51'0 0.0
2014-Jul-16 02:31N 01°16' E 103°51'0 0.0
2014-Jul-16 01:31N 01°16' E 103°51'0 0.0
2014-Jul-16 00:31N 01°16' E 103°51'0 0.0
2014-Jul-15 23:31N 01°16' E 103°51'0 0.0
2014-Jul-15 22:31N 01°16' E 103°51'0 0.0
2014-Jul-15 21:31N 01°16' E 103°51'0 0.0
2014-Jul-15 20:31N 01°16' E 103°51'0 0.0
2014-Jul-15 19:31N 01°16' E 103°51'0 0.0
2014-Jul-15 18:31N 01°16' E 103°51'0 0.0
2014-Jul-15 17:31N 01°16' E 103°51'0 0.1
2014-Jul-15 16:28N 01°16' E 103°51'1 1.3
2014-Jul-15 15:33N 01°15' E 103°52'4 3.7
2014-Jul-15 14:33N 01°17' E 103°55'0 0.2
2014-Jul-15 13:29N 01°17' E 103°55'0 0.1
2014-Jul-15 12:32N 01°17' E 103°55'0 0.1
2014-Jul-15 11:29N 01°17' E 103°55'0 0.1
2014-Jul-15 10:17N 01°17' E 103°55'0 0.1
2014-Jul-15 09:32N 01°17' E 103°55'0 0.1
2014-Jul-15 08:32N 01°17' E 103°55'0 0.0
2014-Jul-15 07:32N 01°17' E 103°55'0 0.0
2014-Jul-15 04:29N 01°17' E 103°55'0 0.0
2014-Jul-15 03:29N 01°17' E 103°55'0 0.0
2014-Jul-15 02:20N 01°17' E 103°55'0 0.0
2014-Jul-15 01:30N 01°17' E 103°55'0 0.4
2014-Jul-15 00:34N 01°17' E 103°55'3 3.3
2014-Jul-14 23:34N 01°13' E 103°55'9 8.4
2014-Jul-14 22:32N 01°09' E 103°48'  
Track history (hours):
 
Tides and Currents Weather Stations Pressure Air Temp Water Temp Dewpoint Dewpoint Depression Visibility Wind Speed Wind Dir Waves Ship Positions

OOCL Oakland

Last reported at 2014-Jul-24 18:26 UTC. Time now 2014-Jul-24 19:19 UTC.
Position N 25°05' E 119°54'.

Length 280 m; draft 11.6 m.

Type: Ship. MMSI: 372703235.

Date/timePositionNaut miles runAvg speedWind from/ knotsBaromVisibWave heightAir tempDewpointWater temp
2014-Jul-24 18:26N 25°05' E 119°54'3414.5
2014-Jul-24 16:07N 24°41' E 119°27'2213.7
2014-Jul-24 14:33N 24°27' E 119°10'3414.3
2014-Jul-24 12:10N 24°04' E 118°42'810.6
2014-Jul-24 11:27N 23°58' E 118°36'1314.8
2014-Jul-24 10:34N 23°49' E 118°26'1515.2
2014-Jul-24 09:33N 23°38' E 118°14'2421.7
2014-Jul-24 08:27N 23°21' E 117°56'  
2014-Jul-17 00:34N 01°13' E 103°56'5 5.1
2014-Jul-16 23:31N 01°16' E 103°51'0 0.0
2014-Jul-16 22:31N 01°16' E 103°51'0 0.0
2014-Jul-16 21:31N 01°16' E 103°51'0 0.0
2014-Jul-16 20:31N 01°16' E 103°51'0 0.0
2014-Jul-16 19:31N 01°16' E 103°51'0 0.0
2014-Jul-16 18:31N 01°16' E 103°51'0 0.0
2014-Jul-16 17:28N 01°16' E 103°51'0 0.0
2014-Jul-16 16:31N 01°16' E 103°51'0 0.0
2014-Jul-16 15:31N 01°16' E 103°51'0 0.0
2014-Jul-16 14:31N 01°16' E 103°51'0 0.0
2014-Jul-16 13:31N 01°16' E 103°51'0 0.0
2014-Jul-16 12:31N 01°16' E 103°51'0 0.0
2014-Jul-16 11:31N 01°16' E 103°51'0 0.0
2014-Jul-16 10:31N 01°16' E 103°51'0 0.0
2014-Jul-16 09:31N 01°16' E 103°51'0 0.0
2014-Jul-16 08:31N 01°16' E 103°51'0 0.0
2014-Jul-16 07:31N 01°16' E 103°51'0 0.0
2014-Jul-16 06:25N 01°16' E 103°51'0 0.0
2014-Jul-16 05:31N 01°16' E 103°51'0 0.0
2014-Jul-16 04:31N 01°16' E 103°51'0 0.0
2014-Jul-16 03:31N 01°16' E 103°51'0 0.0
2014-Jul-16 02:31N 01°16' E 103°51'0 0.0
2014-Jul-16 01:31N 01°16' E 103°51'0 0.0
2014-Jul-16 00:31N 01°16' E 103°51'0 0.0
2014-Jul-15 23:31N 01°16' E 103°51'0 0.0
2014-Jul-15 22:31N 01°16' E 103°51'0 0.0
2014-Jul-15 21:31N 01°16' E 103°51'0 0.0
2014-Jul-15 20:31N 01°16' E 103°51'0 0.0
2014-Jul-15 19:31N 01°16' E 103°51'0 0.0
2014-Jul-15 18:31N 01°16' E 103°51'0 0.0
2014-Jul-15 17:31N 01°16' E 103°51'0 0.1
2014-Jul-15 16:28N 01°16' E 103°51'1 1.3
2014-Jul-15 15:33N 01°15' E 103°52'4 3.7
2014-Jul-15 14:33N 01°17' E 103°55'0 0.2
2014-Jul-15 13:29N 01°17' E 103°55'0 0.1
2014-Jul-15 12:32N 01°17' E 103°55'0 0.1
2014-Jul-15 11:29N 01°17' E 103°55'0 0.1
2014-Jul-15 10:17N 01°17' E 103°55'0 0.1
2014-Jul-15 09:32N 01°17' E 103°55'0 0.1
2014-Jul-15 08:32N 01°17' E 103°55'0 0.0
2014-Jul-15 07:32N 01°17' E 103°55'0 0.0
2014-Jul-15 04:29N 01°17' E 103°55'0 0.0
2014-Jul-15 03:29N 01°17' E 103°55'0 0.0
2014-Jul-15 02:20N 01°17' E 103°55'0 0.0
2014-Jul-15 01:30N 01°17' E 103°55'0 0.4
2014-Jul-15 00:34N 01°17' E 103°55'3 3.3
2014-Jul-14 23:34N 01°13' E 103°55'9 8.4
2014-Jul-14 22:32N 01°09' E 103°48'  

Dump ship's entire track history